Time;durP1;ratioP1;P1;durP2;ratioP2;P2;SDS_P1;SDS_P2;PMS_P1;PMS_P2;Temp;Humidity;BMP_temperature;BMP_pressure;BME280_temperature;BME280_humidity;BME280_pressure;Samples;Min_cycle;Max_cycle;Signal;HPM_P1;HPM_P2
2024/02/07 00:01:38;;;;;;;13.10;5.32;;;;;;;8.33;100.00;100044.69;4867806;29;20049;-73
2024/02/07 00:04:03;;;;;;;0.40;0.40;;;;;;;8.80;100.00;100127.72;4871788;29;20104;-73
2024/02/07 00:06:30;;;;;;;1.10;1.10;;;;;;;8.37;100.00;100043.84;4872157;29;20096;-73
2024/02/07 00:08:56;;;;;;;9.55;8.80;;;;;;;8.40;100.00;100046.50;4870545;29;20128;-74
2024/02/07 00:11:22;;;;;;;0.20;0.20;;;;;;;8.58;100.00;100110.19;4870768;29;20543;-74
2024/02/07 00:13:47;;;;;;;3.13;2.92;;;;;;;8.37;100.00;100067.38;4872578;29;20659;-73
2024/02/07 00:16:14;;;;;;;0.73;0.73;;;;;;;8.23;100.00;100041.19;4871691;29;20029;-74
2024/02/07 00:18:40;;;;;;;0.25;0.25;;;;;;;8.73;100.00;100127.66;4871919;29;20049;-73
2024/02/07 00:21:06;;;;;;;0.65;0.65;;;;;;;8.62;100.00;100132.88;4871773;29;20064;-73
2024/02/07 00:23:32;;;;;;;3.88;2.90;;;;;;;8.55;100.00;100124.13;4865698;29;20508;-74
2024/02/07 00:25:58;;;;;;;3.05;2.78;;;;;;;8.24;100.00;100094.31;4869374;29;20069;-74
2024/02/07 00:28:23;;;;;;;0.73;0.73;;;;;;;7.77;100.00;100017.50;4867129;29;20391;-73
2024/02/07 00:30:49;;;;;;;3.85;3.45;;;;;;;7.87;100.00;100017.56;4871532;29;20052;-73
2024/02/07 00:33:15;;;;;;;0.45;0.45;;;;;;;8.23;100.00;100069.94;4869157;29;20509;-73
2024/02/07 00:35:40;;;;;;;1.23;1.23;;;;;;;8.05;100.00;100022.81;4871062;29;20109;-73
2024/02/07 00:38:06;;;;;;;0.30;0.30;;;;;;;8.40;100.00;100113.59;4871826;29;20061;-73
2024/02/07 00:40:32;;;;;;;0.35;0.35;;;;;;;8.43;100.00;100116.25;4867042;29;20132;-75
2024/02/07 00:42:58;;;;;;;1.92;1.85;;;;;;;7.82;100.00;100007.09;4870633;29;20044;-74
2024/02/07 00:45:24;;;;;;;0.77;0.77;;;;;;;7.98;100.00;100011.50;4871423;29;20425;-74
2024/02/07 00:47:49;;;;;;;0.50;0.50;;;;;;;7.92;100.00;100001.03;4870899;29;20061;-72
2024/02/07 00:50:15;;;;;;;1.25;1.15;;;;;;;7.80;100.00;100004.44;4870675;29;20498;-72
2024/02/07 00:52:41;;;;;;;1.05;0.95;;;;;;;7.91;100.00;100028.00;4874326;29;20425;-73
2024/02/07 00:55:07;;;;;;;1.88;1.77;;;;;;;8.36;100.00;100125.78;4870847;29;20033;-72
2024/02/07 00:57:33;;;;;;;0.47;0.47;;;;;;;7.98;100.00;100060.25;4867410;29;20053;-73
2024/02/07 00:59:58;;;;;;;27.48;25.27;;;;;;;7.79;100.00;100030.56;4868348;29;20060;-74
2024/02/07 01:02:24;;;;;;;4.65;3.65;;;;;;;8.21;100.00;100084.75;4864068;29;20172;-73
2024/02/07 01:04:51;;;;;;;5.15;3.80;;;;;;;8.16;100.00;100114.34;4869072;29;20106;-73
2024/02/07 01:07:17;;;;;;;7.03;6.70;;;;;;;8.29;100.00;100115.25;4866886;29;20064;-73
2024/02/07 01:09:42;;;;;;;0.75;0.75;;;;;;;7.69;100.00;100020.94;4869408;29;20041;-73
2024/02/07 01:12:08;;;;;;;1.00;0.75;;;;;;;8.27;100.00;100093.50;4867035;29;20099;-73
2024/02/07 01:14:33;;;;;;;1.58;1.48;;;;;;;8.07;100.00;100096.88;4863626;29;20596;-73
2024/02/07 01:16:59;;;;;;;0.30;0.30;;;;;;;7.54;100.00;100000.84;4869300;29;20056;-73
2024/02/07 01:19:25;;;;;;;0.50;0.50;;;;;;;8.25;100.00;100096.09;4868340;29;20063;-73
2024/02/07 01:21:50;;;;;;;2.47;2.38;;;;;;;7.98;100.00;100105.56;4871289;29;20059;-74
2024/02/07 01:24:15;;;;;;;0.40;0.40;;;;;;;7.56;100.00;99997.38;4867445;29;20064;-73
2024/02/07 01:26:44;;;;;;;2.35;1.52;;;;;;;7.56;100.00;100025.19;4869348;29;20045;-74
2024/02/07 01:29:09;;;;;;;0.90;0.90;;;;;;;7.44;100.00;99991.19;4854272;29;20065;-72
2024/02/07 01:31:35;;;;;;;0.30;0.30;;;;;;;7.24;100.00;99985.88;4874331;29;20048;-74
2024/02/07 01:34:00;;;;;;;0.35;0.35;;;;;;;7.98;100.00;100104.66;4872713;29;20029;-74
2024/02/07 01:36:26;;;;;;;0.47;0.47;;;;;;;7.91;100.00;100082.84;4871004;29;20131;-73
2024/02/07 01:38:51;;;;;;;0.30;0.30;;;;;;;7.87;100.00;100070.66;4870382;29;20516;-72
2024/02/07 01:41:19;;;;;;;1.00;1.00;;;;;;;7.15;100.00;100015.38;4875699;29;20056;-73
2024/02/07 01:43:44;;;;;;;0.20;0.20;;;;;;;7.28;100.00;100026.75;4866627;29;20378;-72
2024/02/07 01:46:12;;;;;;;1.05;1.00;;;;;;;7.11;100.00;99990.97;4874012;29;20040;-73
2024/02/07 01:48:38;;;;;;;7.10;6.72;;;;;;;7.62;100.00;100082.69;4872664;29;20063;-72
2024/02/07 01:51:04;;;;;;;0.93;0.93;;;;;;;7.66;100.00;100100.13;4870365;29;20181;-72
2024/02/07 01:53:31;;;;;;;1.27;1.17;;;;;;;7.55;100.00;100073.94;4871021;29;20490;-72
2024/02/07 01:55:59;;;;;;;0.40;0.40;;;;;;;7.56;100.00;100087.84;4870563;29;20053;-72
2024/02/07 01:58:28;;;;;;;0.35;0.35;;;;;;;7.70;100.00;100096.69;4872100;29;20045;-72
2024/02/07 02:00:54;;;;;;;0.65;0.65;;;;;;;6.94;100.00;99976.94;4871094;29;20148;-72
2024/02/07 02:03:19;;;;;;;2.92;2.65;;;;;;;7.56;100.00;100099.19;4873087;29;20363;-73
2024/02/07 02:05:45;;;;;;;24.67;22.50;;;;;;;6.80;100.00;99986.41;4869337;29;20485;-73
2024/02/07 02:08:11;;;;;;;0.30;0.30;;;;;;;7.14;100.00;100021.44;4853624;29;20056;-71
2024/02/07 02:10:37;;;;;;;0.90;0.77;;;;;;;7.42;100.00;100098.19;4870237;29;20209;-73
2024/02/07 02:13:03;;;;;;;0.30;0.30;;;;;;;7.49;100.00;100086.97;4873753;29;20044;-73
2024/02/07 02:15:29;;;;;;;0.88;0.88;;;;;;;7.48;100.00;100098.25;4870225;29;20049;-73
2024/02/07 02:17:55;;;;;;;1.38;1.30;;;;;;;7.40;100.00;100084.28;4872261;29;20055;-73
2024/02/07 02:20:21;;;;;;;0.30;0.30;;;;;;;7.17;100.00;100082.34;4871766;29;20056;-73
2024/02/07 02:22:59;;;;;;;0.30;0.30;;;;;;;6.73;100.00;99985.47;4874084;29;20064;-73
2024/02/07 02:25:42;;;;;;;2.20;2.10;;;;;;;7.18;100.00;100102.34;4879432;29;20530;-73
2024/02/07 02:28:32;;;;;;;0.70;0.70;;;;;;;7.28;100.00;100089.38;4874699;29;20049;-73
2024/02/07 02:30:59;;;;;;;0.82;0.82;;;;;;;6.47;100.00;99962.66;4872886;29;20065;-73
2024/02/07 02:33:32;;;;;;;1.88;0.55;;;;;;;6.60;100.00;99992.28;4871051;29;20053;-73
2024/02/07 02:36:00;;;;;;;5.30;5.00;;;;;;;6.59;100.00;99974.06;4873620;29;20478;-73
2024/02/07 02:38:27;;;;;;;0.30;0.30;;;;;;;7.16;100.00;100084.94;4871106;29;20189;-72
2024/02/07 02:40:54;;;;;;;0.25;0.25;;;;;;;7.04;100.00;100082.22;4873916;29;20124;-72
2024/02/07 02:43:23;;;;;;;0.60;0.60;;;;;;;7.18;100.00;100086.69;4871287;29;20113;-72
2024/02/07 02:45:51;;;;;;;0.20;0.20;;;;;;;7.17;100.00;100079.75;4871815;29;20036;-73
2024/02/07 02:48:18;;;;;;;2.55;1.23;;;;;;;6.33;100.00;99962.53;4873432;29;20059;-74
2024/02/07 02:50:45;;;;;;;0.40;0.40;;;;;;;6.23;100.00;99975.47;4870991;29;21073;-74
2024/02/07 02:53:11;;;;;;;4.18;3.72;;;;;;;7.00;100.00;100088.28;4871276;29;20573;-72
2024/02/07 02:55:37;;;;;;;0.40;0.40;;;;;;;6.99;100.00;100090.00;4870679;29;20052;-75
2024/02/07 02:58:03;;;;;;;1.15;1.15;;;;;;;6.25;100.00;99987.63;4874160;29;20037;-72
2024/02/07 03:00:30;;;;;;;2.67;1.15;;;;;;;6.47;100.00;100027.81;4871099;29;20417;-72
2024/02/07 03:02:56;;;;;;;0.30;0.30;;;;;;;6.69;100.00;100082.75;4869612;29;20067;-72
2024/02/07 03:05:45;;;;;;;1.15;1.05;;;;;;;6.34;100.00;100005.06;4866752;29;20129;-72
2024/02/07 03:10:44;;;;;;;0.75;0.75;;;;;;;6.81;100.00;100089.84;4868791;29;20185;-72
2024/02/07 03:13:10;;;;;;;4.47;4.18;;;;;;;6.84;100.00;100095.97;4870709;29;20124;-72
2024/02/07 03:15:36;;;;;;;0.68;0.68;;;;;;;6.45;100.00;100008.66;4873042;29;20709;-73
2024/02/07 03:18:01;;;;;;;1.00;1.00;;;;;;;6.78;100.00;100084.59;4870536;29;20089;-73
2024/02/07 03:20:28;;;;;;;3.05;1.10;;;;;;;6.57;100.00;100043.53;4870160;29;20590;-73
2024/02/07 03:22:57;;;;;;;12.10;6.53;;;;;;;6.10;100.00;99970.09;4869142;29;20073;-72
2024/02/07 03:25:22;;;;;;;2.58;2.47;;;;;;;6.73;100.00;100050.66;4868904;29;20052;-72
2024/02/07 03:27:48;;;;;;;0.80;0.45;;;;;;;6.70;100.00;100082.78;4872200;29;20033;-73
2024/02/07 03:30:16;;;;;;;0.30;0.30;;;;;;;6.75;100.00;100061.97;4862391;29;20057;-73
2024/02/07 03:32:42;;;;;;;0.75;0.73;;;;;;;6.72;100.00;100067.16;4872672;29;20041;-73
2024/02/07 03:35:09;;;;;;;0.22;0.22;;;;;;;6.19;100.00;99994.50;4871049;29;20068;-73
2024/02/07 03:37:35;;;;;;;0.90;0.90;;;;;;;6.08;100.00;99977.00;4870680;29;20077;-73
2024/02/07 03:40:01;;;;;;;0.30;0.30;;;;;;;6.02;100.00;99976.09;4871078;29;20048;-73
2024/02/07 03:42:26;;;;;;;0.30;0.30;;;;;;;6.22;100.00;100024.06;4870893;29;20523;-72
2024/02/07 03:44:58;;;;;;;0.40;0.40;;;;;;;6.65;100.00;100078.38;4873089;29;20131;-72
2024/02/07 03:47:24;;;;;;;0.70;0.70;;;;;;;6.61;100.00;100074.88;4872439;29;20160;-74
2024/02/07 03:49:51;;;;;;;0.40;0.40;;;;;;;5.99;100.00;99989.06;4870628;29;20092;-73
2024/02/07 03:52:18;;;;;;;1.40;1.30;;;;;;;6.47;100.00;100061.69;4873907;29;20063;-73
2024/02/07 03:54:50;;;;;;;2.45;2.30;;;;;;;6.55;100.00;100066.97;4871360;29;20456;-74
2024/02/07 03:57:21;;;;;;;0.25;0.25;;;;;;;5.99;100.00;99983.84;4870562;29;20152;-73
2024/02/07 03:59:48;;;;;;;1.02;1.02;;;;;;;6.46;100.00;100046.03;4866880;29;20109;-73
2024/02/07 04:02:21;;;;;;;0.20;0.20;;;;;;;6.60;100.00;100078.31;4868810;29;20394;-73
2024/02/07 04:04:55;;;;;;;3.13;2.85;;;;;;;6.53;100.00;100069.59;4866771;29;20052;-73
2024/02/07 04:07:25;;;;;;;0.20;0.20;;;;;;;5.89;100.00;99969.81;4854540;29;20036;-71
2024/02/07 04:09:52;;;;;;;3.28;3.13;;;;;;;6.01;100.00;99983.00;4867029;29;20093;-75
2024/02/07 05:17:19;;;;;;;3.53;3.33;;;;;;;5.75;100.00;99977.47;4870227;29;20077;-73
2024/02/07 05:19:49;;;;;;;0.63;0.63;;;;;;;6.20;100.00;100048.34;4870896;29;20049;-72
2024/02/07 05:22:17;;;;;;;0.88;0.88;;;;;;;6.29;100.00;100062.34;4870410;29;20421;-72
2024/02/07 05:24:45;;;;;;;0.75;0.75;;;;;;;6.41;100.00;100078.97;4867213;29;20140;-72
2024/02/07 05:27:12;;;;;;;0.22;0.22;;;;;;;6.33;100.00;100068.47;4869920;29;20065;-73
2024/02/07 05:29:41;;;;;;;0.30;0.30;;;;;;;5.81;100.00;99968.88;4867094;29;20073;-75
2024/02/07 05:32:08;;;;;;;0.52;0.52;;;;;;;6.41;100.00;100074.63;4868945;29;20517;-75
2024/02/07 05:34:34;;;;;;;0.63;0.63;;;;;;;6.40;100.00;100056.41;4867918;29;20036;-74
2024/02/07 05:37:01;;;;;;;1.38;1.27;;;;;;;6.05;100.00;99990.00;4855412;29;20041;-74
2024/02/07 05:39:27;;;;;;;0.95;0.85;;;;;;;6.57;100.00;100091.34;4870050;29;20085;-73
2024/02/07 05:41:53;;;;;;;0.68;0.68;;;;;;;6.61;100.00;100087.91;4869291;29;20223;-73
2024/02/07 05:44:19;;;;;;;0.30;0.30;;;;;;;6.41;100.00;100053.78;4868514;29;20488;-74
2024/02/07 05:46:44;;;;;;;2.60;2.40;;;;;;;6.43;100.00;100080.75;4870025;29;20052;-73
2024/02/07 05:49:13;;;;;;;0.52;0.52;;;;;;;6.50;100.00;100064.31;4872119;29;20044;-73
2024/02/07 05:51:39;;;;;;;0.55;0.30;;;;;;;6.67;100.00;100087.97;4868191;29;20057;-73
2024/02/07 05:54:05;;;;;;;24.45;7.93;;;;;;;6.65;100.00;100089.69;4867518;29;20144;-73
2024/02/07 05:56:31;;;;;;;0.95;0.88;;;;;;;6.60;100.00;100077.44;4869727;29;20462;-73
2024/02/07 05:58:59;;;;;;;1.13;1.08;;;;;;;6.46;100.00;100064.25;4870260;29;20053;-74
2024/02/07 06:01:24;;;;;;;0.65;0.65;;;;;;;6.61;100.00;100089.66;4869688;29;20096;-74
2024/02/07 06:03:52;;;;;;;0.65;0.65;;;;;;;6.69;100.00;100087.97;4869610;29;20041;-74
2024/02/07 06:06:24;;;;;;;0.30;0.30;;;;;;;6.60;100.00;100056.59;4868544;29;20075;-74
2024/02/07 06:08:52;;;;;;;4.00;3.67;;;;;;;6.48;100.00;100041.72;4870058;29;20371;-74
2024/02/07 06:11:18;;;;;;;2.78;0.88;;;;;;;6.87;100.00;100092.50;4869953;29;20064;-75
2024/02/07 06:13:45;;;;;;;2.75;1.85;;;;;;;6.90;100.00;100088.19;4871598;29;20048;-72
2024/02/07 06:16:10;;;;;;;1.25;1.17;;;;;;;6.27;100.00;100016.28;4866326;29;20044;-74
2024/02/07 06:18:36;;;;;;;3.28;3.05;;;;;;;6.41;100.00;100014.69;4870245;29;20607;-74
2024/02/07 06:21:02;;;;;;;0.40;0.40;;;;;;;6.92;100.00;100078.66;4870149;29;20049;-72
2024/02/07 06:23:28;;;;;;;0.30;0.30;;;;;;;6.93;100.00;100088.25;4868538;29;20099;-74
2024/02/07 06:25:53;;;;;;;0.85;0.80;;;;;;;6.94;100.00;100092.56;4871380;29;20468;-74
2024/02/07 06:28:19;;;;;;;6.10;5.75;;;;;;;6.95;100.00;100094.34;4874125;29;20044;-72
2024/02/07 06:30:45;;;;;;;2.25;2.15;;;;;;;6.57;100.00;100022.69;4851092;29;20033;-74
2024/02/07 06:33:10;;;;;;;0.57;0.57;;;;;;;6.51;100.00;99989.63;4865569;29;20045;-74
2024/02/07 06:35:36;;;;;;;0.40;0.30;;;;;;;7.10;100.00;100074.47;4868772;29;20611;-75
2024/02/07 06:38:02;;;;;;;0.60;0.60;;;;;;;6.95;100.00;100052.63;4856136;29;20536;-74
2024/02/07 06:40:29;;;;;;;0.30;0.30;;;;;;;6.82;100.00;100035.09;4870840;29;20045;-73
2024/02/07 06:42:54;;;;;;;11.23;10.73;;;;;;;6.68;100.00;100001.06;4873921;29;20041;-80
2024/02/07 06:45:20;;;;;;;0.52;0.52;;;;;;;6.51;100.00;99956.63;4871215;29;20383;-80
2024/02/07 06:47:45;;;;;;;0.57;0.57;;;;;;;7.37;100.00;100086.84;4869876;29;20685;-80
2024/02/07 06:50:11;;;;;;;0.55;0.55;;;;;;;7.03;100.00;100026.59;4873192;29;20057;-80
2024/02/07 06:52:38;;;;;;;14.40;13.48;;;;;;;6.59;100.00;99940.16;4871696;29;20123;-84
2024/02/07 06:55:04;;;;;;;0.95;0.95;;;;;;;7.55;100.00;100084.38;4872925;29;20862;-80
2024/02/07 06:57:30;;;;;;;3.72;3.53;;;;;;;7.48;100.00;100068.66;4871067;29;20072;-78
2024/02/07 06:59:55;;;;;;;0.40;0.40;;;;;;;7.21;100.00;100004.09;4871188;29;20037;-77
2024/02/07 07:02:21;;;;;;;0.90;0.75;;;;;;;7.43;100.00;100018.19;4852479;29;20136;-79
2024/02/07 07:04:46;;;;;;;1.08;1.05;;;;;;;7.69;100.00;100055.75;4867433;29;20045;-77
2024/02/07 07:07:13;;;;;;;0.60;0.60;;;;;;;7.15;100.00;99939.72;4856494;29;20912;-78
2024/02/07 07:09:39;;;;;;;4.78;3.90;;;;;;;8.04;100.00;100083.81;4878170;29;20068;-78
2024/02/07 07:12:05;;;;;;;1.20;1.10;;;;;;;7.72;100.00;100000.91;4874273;29;20073;-78
2024/02/07 07:14:30;;;;;;;0.30;0.30;;;;;;;7.75;100.00;99992.22;4873092;29;20052;-79
2024/02/07 07:16:56;;;;;;;0.30;0.30;;;;;;;8.25;100.00;100073.44;4873727;29;20056;-78
2024/02/07 07:19:21;;;;;;;15.00;3.72;;;;;;;8.14;100.00;100053.34;4874001;29;20178;-78
2024/02/07 07:21:47;;;;;;;2.50;2.40;;;;;;;7.95;100.00;99995.78;4884256;29;20102;-76
2024/02/07 07:24:12;;;;;;;0.80;0.80;;;;;;;8.40;100.00;100071.78;4866608;29;20521;-79
2024/02/07 07:26:38;;;;;;;0.88;0.88;;;;;;;7.92;100.00;99969.66;4875167;29;20052;-79
2024/02/07 07:29:04;;;;;;;2.40;2.20;;;;;;;8.08;100.00;99975.81;4871052;29;20185;-77
2024/02/07 07:31:34;;;;;;;11.50;10.75;;;;;;;7.96;100.00;99947.94;4873685;29;20638;-77
2024/02/07 07:34:02;;;;;;;0.77;0.77;;;;;;;8.75;100.00;100064.00;4872339;29;20457;-77
2024/02/07 07:36:27;;;;;;;1.35;1.27;;;;;;;8.77;100.00;100057.06;4870376;29;20063;-80
2024/02/07 07:38:54;;;;;;;0.43;0.43;;;;;;;8.35;100.00;99979.38;4870661;29;20565;-79
2024/02/07 07:41:20;;;;;;;5.72;5.25;;;;;;;8.34;100.00;99969.78;4873098;29;20557;-76
2024/02/07 07:43:45;;;;;;;0.30;0.30;;;;;;;8.83;100.00;100059.69;4871700;29;20140;-78
2024/02/07 07:46:11;;;;;;;22.17;4.60;;;;;;;8.63;100.00;99970.72;4872368;29;20041;-75
2024/02/07 07:48:37;;;;;;;0.93;0.85;;;;;;;8.79;100.00;99973.34;4872516;29;20057;-77
2024/02/07 07:51:02;;;;;;;0.65;0.65;;;;;;;8.86;100.00;99967.25;4871463;29;20079;-76
2024/02/07 07:53:28;;;;;;;1.13;1.05;;;;;;;8.84;100.00;99937.59;4871399;29;20410;-77
2024/02/07 07:55:53;;;;;;;0.20;0.20;;;;;;;9.27;100.00;99998.63;4872553;29;20520;-79
2024/02/07 07:58:20;;;;;;;1.67;0.93;;;;;;;9.57;100.00;100036.09;4873442;29;20032;-78
2024/02/07 08:00:46;;;;;;;3.65;3.35;;;;;;;9.47;100.00;99987.22;4871997;29;20044;-76
2024/02/07 08:03:12;;;;;;;11.45;4.35;;;;;;;9.66;100.00;100025.59;4870139;29;20049;-77
2024/02/07 08:05:40;;;;;;;0.65;0.65;;;;;;;9.93;100.00;100052.59;4873361;29;20390;-78
2024/02/07 08:08:07;;;;;;;0.47;0.40;;;;;;;9.70;100.00;100018.59;4871236;29;20052;-78
2024/02/07 08:10:33;;;;;;;0.20;0.20;;;;;;;9.41;100.00;99956.69;4875457;29;20036;-79
2024/02/07 08:12:59;;;;;;;0.73;0.73;;;;;;;10.02;100.00;100046.44;4873411;29;20029;-78
2024/02/07 08:15:24;;;;;;;0.30;0.30;;;;;;;9.86;100.00;100022.06;4871647;29;20097;-76
2024/02/07 08:17:50;;;;;;;11.52;2.33;;;;;;;10.14;100.00;100020.19;4871011;29;20075;-79
2024/02/07 08:20:16;;;;;;;1.77;1.67;;;;;;;9.96;100.00;99997.53;4871396;29;20553;-78
2024/02/07 08:22:42;;;;;;;0.30;0.30;;;;;;;9.65;100.00;99928.69;4871077;29;20268;-77
2024/02/07 08:25:08;;;;;;;0.20;0.20;;;;;;;10.29;100.00;100028.00;4871477;29;20448;-78
2024/02/07 08:27:33;;;;;;;4.50;3.95;;;;;;;10.52;100.00;100034.88;4872760;29;20064;-78
2024/02/07 08:29:59;;;;;;;6.90;2.95;;;;;;;10.51;100.00;100049.75;4870123;29;20355;-78
2024/02/07 08:32:24;;;;;;;0.30;0.30;;;;;;;10.30;100.00;99997.41;4866358;29;20053;-78
2024/02/07 08:34:50;;;;;;;1.30;1.15;;;;;;;10.12;100.00;99945.94;4872126;29;20089;-78
2024/02/07 08:37:15;;;;;;;1.33;1.23;;;;;;;10.29;100.00;99962.44;4873150;29;20503;-78
2024/02/07 08:39:41;;;;;;;2.70;2.50;;;;;;;10.38;100.00;99958.91;4868912;29;20093;-77
2024/02/07 08:42:07;;;;;;;3.88;3.20;;;;;;;10.95;100.00;100037.22;4872475;29;20045;-77
2024/02/07 08:44:32;;;;;;;7.38;6.72;;;;;;;10.75;100.00;99987.50;4853144;29;20049;-78
2024/02/07 08:46:58;;;;;;;2.75;2.53;;;;;;;11.11;100.00;100036.19;4871715;29;20060;-77
2024/02/07 08:49:23;;;;;;;2.63;1.92;;;;;;;10.71;100.00;99949.03;4868305;29;20370;-77
2024/02/07 08:51:49;;;;;;;0.50;0.50;;;;;;;11.04;100.00;100008.25;4865794;29;20040;-78
2024/02/07 08:54:14;;;;;;;2.88;2.67;;;;;;;11.44;100.00;100041.16;4871818;29;20092;-77
2024/02/07 08:56:40;;;;;;;1.27;0.90;;;;;;;11.59;100.00;100039.28;4871810;29;20061;-78
2024/02/07 08:59:05;;;;;;;4.32;1.42;;;;;;;11.73;100.00;100035.59;4871448;29;20053;-77
2024/02/07 09:01:31;;;;;;;2.17;2.00;;;;;;;11.87;100.00;100039.00;4870647;29;20032;-79
2024/02/07 09:03:57;;;;;;;2.33;1.98;;;;;;;11.83;100.00;100024.13;4872202;29;20108;-78
2024/02/07 09:06:22;;;;;;;8.32;4.05;;;;;;;11.36;100.00;99950.19;4870968;29;20072;-78
2024/02/07 09:08:49;;;;;;;2.92;2.72;;;;;;;11.57;100.00;99963.97;4871010;29;20056;-77
2024/02/07 09:11:14;;;;;;;2.97;2.78;;;;;;;11.62;100.00;99944.63;4872307;29;20060;-78
2024/02/07 09:13:40;;;;;;;3.70;2.05;;;;;;;12.24;100.00;100033.28;4870805;29;20131;-79
2024/02/07 09:16:06;;;;;;;3.10;2.58;;;;;;;12.33;100.00;100038.44;4855007;29;20407;-78
2024/02/07 09:18:35;;;;;;;1.88;1.65;;;;;;;12.20;100.00;99989.53;4870931;29;20055;-79
2024/02/07 09:21:00;;;;;;;2.03;1.83;;;;;;;12.43;100.00;99997.97;4870373;29;20057;-79
2024/02/07 09:23:26;;;;;;;1.95;1.33;;;;;;;12.64;100.00;100011.69;4869284;29;20053;-77
2024/02/07 09:25:51;;;;;;;4.18;3.30;;;;;;;12.58;100.00;99988.09;4871667;29;20033;-77
2024/02/07 09:28:18;;;;;;;4.05;3.28;;;;;;;12.42;100.00;99925.16;4871690;29;20473;-77
2024/02/07 09:30:43;;;;;;;2.53;1.90;;;;;;;12.91;100.00;99975.28;4872106;29;20199;-79
2024/02/07 09:33:09;;;;;;;2.63;2.38;;;;;;;13.15;100.00;99995.94;4872323;29;20137;-77
2024/02/07 09:35:34;;;;;;;3.00;2.72;;;;;;;13.20;100.00;99964.25;4872011;29;20037;-78
2024/02/07 09:38:00;;;;;;;4.40;2.90;;;;;;;13.32;100.00;99974.59;4872273;29;20044;-77
2024/02/07 09:40:25;;;;;;;5.47;3.95;;;;;;;13.56;100.00;99983.81;4873229;29;20025;-75
2024/02/07 09:42:51;;;;;;;4.40;1.35;;;;;;;13.61;100.00;99960.88;4878442;29;20492;-78
2024/02/07 09:45:18;;;;;;;1.73;1.63;;;;;;;13.23;100.00;99886.03;4881153;29;20080;-77
2024/02/07 09:48:21;;;;;;;2.30;2.08;;;;;;;13.82;100.00;99977.16;4881177;29;20087;-77
2024/02/07 09:50:51;;;;;;;2.58;1.98;;;;;;;13.38;100.00;99894.56;4859875;29;20064;-79
2024/02/07 09:53:19;;;;;;;2.20;1.92;;;;;;;13.32;100.00;99903.44;4870083;29;20049;-78
2024/02/07 09:55:46;;;;;;;3.92;3.50;;;;;;;13.22;100.00;99889.53;4872785;29;20061;-76
2024/02/07 09:58:13;;;;;;;2.75;1.27;;;;;;;13.58;100.00;99938.94;4879567;29;20045;-76
2024/02/07 10:00:39;;;;;;;1.85;1.30;;;;;;;13.96;100.00;99961.91;4884787;29;20121;-77
2024/02/07 10:03:14;;;;;;;2.95;1.20;;;;;;;13.35;100.00;99855.09;4878158;29;20417;-77
2024/02/07 10:05:49;;;;;;;1.38;1.02;;;;;;;14.04;100.00;99940.66;4876093;29;20044;-77
2024/02/07 10:08:14;;;;;;;6.43;4.13;;;;;;;13.92;100.00;99907.50;4874832;29;20041;-78
2024/02/07 10:10:45;;;;;;;3.72;2.67;;;;;;;13.46;100.00;99855.72;4874779;29;20041;-78
2024/02/07 10:13:13;;;;;;;1.17;1.08;;;;;;;13.89;100.00;99926.03;4857286;29;20106;-78
2024/02/07 10:15:39;;;;;;;1.45;1.35;;;;;;;14.13;100.00;99951.84;4874669;29;20056;-78
2024/02/07 10:18:05;;;;;;;3.25;2.05;;;;;;;13.80;100.00;99853.25;4874217;29;20058;-78
2024/02/07 10:20:30;;;;;;;2.80;2.45;;;;;;;14.60;100.00;99932.38;4875436;29;20422;-76
2024/02/07 10:22:56;;;;;;;2.15;1.88;;;;;;;14.47;100.00;99924.72;4871351;29;20065;-78
2024/02/07 10:25:23;;;;;;;4.78;2.22;;;;;;;14.48;100.00;99931.72;4874661;29;20709;-75
2024/02/07 10:27:49;;;;;;;1.85;1.75;;;;;;;14.48;100.00;99909.72;4872839;29;20124;-78
2024/02/07 10:30:14;;;;;;;2.15;2.03;;;;;;;14.13;100.00;99808.53;4875190;29;20100;-77
2024/02/07 10:32:41;;;;;;;1.65;1.30;;;;;;;14.68;100.00;99915.44;4872803;29;20045;-77
2024/02/07 10:35:10;;;;;;;2.15;1.88;;;;;;;14.32;100.00;99828.25;4873763;29;20055;-77
2024/02/07 10:37:41;;;;;;;1.60;1.50;;;;;;;14.70;100.00;99920.66;4873978;29;20056;-76
2024/02/07 10:40:09;;;;;;;2.38;2.03;;;;;;;14.66;100.00;99916.38;4871391;29;20072;-78
2024/02/07 10:42:35;;;;;;;6.90;4.32;;;;;;;14.18;100.00;99813.69;4872732;29;20056;-78
2024/02/07 10:45:08;;;;;;;2.67;2.38;;;;;;;14.86;100.00;99898.22;4872889;29;20056;-77
2024/02/07 10:47:35;;;;;;;2.35;1.85;;;;;;;15.06;100.00;99899.50;4876094;29;20077;-77
2024/02/07 10:50:02;;;;;;;4.22;2.13;;;;;;;15.18;100.00;99886.81;4873967;29;20053;-79
2024/02/07 10:52:28;;;;;;;5.32;4.68;;;;;;;15.45;100.00;99875.50;4874094;29;20136;-77
2024/02/07 10:54:55;;;;;;;5.65;2.60;;;;;;;14.85;100.00;99792.63;4873497;29;20168;-78
2024/02/07 10:57:27;;;;;;;11.52;5.07;;;;;;;15.02;100.00;99806.22;4873593;29;20053;-79
2024/02/07 10:59:56;;;;;;;2.75;2.53;;;;;;;15.81;100.00;99886.81;4870810;29;20065;-80
2024/02/07 11:02:22;;;;;;;3.63;2.45;;;;;;;15.52;100.00;99809.19;4871738;29;20056;-78
2024/02/07 11:04:50;;;;;;;3.25;2.92;;;;;;;16.12;96.39;99873.50;4873912;29;20501;-78
2024/02/07 11:07:18;;;;;;;4.13;3.72;;;;;;;16.50;94.59;99849.34;4874265;29;20053;-76
2024/02/07 11:09:45;;;;;;;3.17;1.58;;;;;;;16.48;95.00;99817.63;4872549;29;20523;-78
2024/02/07 11:12:14;;;;;;;3.92;3.10;;;;;;;16.98;88.37;99856.59;4870246;29;20053;-78
2024/02/07 11:14:45;;;;;;;1.27;1.17;;;;;;;16.40;89.96;99836.41;4874862;29;20072;-76
2024/02/07 11:17:13;;;;;;;3.85;2.83;;;;;;;16.59;91.02;99838.44;4871895;29;20067;-77
2024/02/07 11:19:39;;;;;;;2.90;2.08;;;;;;;16.10;89.93;99744.78;4873384;29;20422;-78
2024/02/07 11:22:11;;;;;;;6.28;1.33;;;;;;;16.79;89.59;99837.81;4874306;29;20521;-79
2024/02/07 11:24:38;;;;;;;5.15;3.60;;;;;;;16.56;89.56;99785.59;4868328;29;20169;-77
2024/02/07 11:27:04;;;;;;;3.65;3.30;;;;;;;16.38;87.38;99740.28;4862381;29;20063;-77
2024/02/07 11:29:30;;;;;;;2.55;2.33;;;;;;;16.57;85.98;99769.63;4855661;29;20076;-78
2024/02/07 11:31:56;;;;;;;1.27;0.95;;;;;;;17.24;81.41;99845.03;4872856;29;20077;-77
2024/02/07 11:34:22;;;;;;;2.08;1.75;;;;;;;16.74;80.44;99754.91;4872711;29;20143;-76
2024/02/07 11:36:57;;;;;;;3.67;2.03;;;;;;;17.20;75.25;99838.09;4873626;29;20564;-79
2024/02/07 11:39:22;;;;;;;1.20;1.10;;;;;;;17.22;77.38;99817.72;4872482;29;20049;-78
2024/02/07 11:41:48;;;;;;;1.63;1.52;;;;;;;16.96;76.86;99725.91;4873839;29;20097;-78
2024/02/07 11:44:17;;;;;;;4.88;3.15;;;;;;;17.38;73.62;99825.97;4872138;29;20422;-79
2024/02/07 11:46:54;;;;;;;2.65;1.60;;;;;;;17.30;73.36;99832.44;4855569;29;20061;-76
2024/02/07 11:49:30;;;;;;;1.70;1.60;;;;;;;16.93;70.54;99744.53;4874349;29;20555;-79
2024/02/07 11:51:59;;;;;;;2.40;1.80;;;;;;;17.16;68.83;99805.56;4873631;29;20437;-77
2024/02/07 11:54:30;;;;;;;1.65;1.55;;;;;;;17.06;67.77;99815.59;4871192;29;20070;-79
2024/02/07 11:57:00;;;;;;;9.65;2.42;;;;;;;16.90;70.38;99825.03;4872732;29;20041;-79
2024/02/07 11:59:27;;;;;;;1.23;0.82;;;;;;;15.87;69.08;99648.50;4867688;29;20067;-79
2024/02/07 12:01:54;;;;;;;1.98;1.05;;;;;;;17.03;69.41;99797.16;4872776;29;20085;-80
2024/02/07 12:04:19;;;;;;;1.98;1.70;;;;;;;17.16;68.05;99780.81;4873276;29;20056;-79
2024/02/07 12:06:46;;;;;;;3.10;2.80;;;;;;;17.10;69.68;99795.16;4855309;29;20378;-79
2024/02/07 12:09:11;;;;;;;3.08;2.50;;;;;;;17.17;67.10;99782.56;4872810;29;20077;-76
2024/02/07 12:11:38;;;;;;;1.65;1.55;;;;;;;16.99;67.58;99781.44;4872332;29;20140;-78
2024/02/07 12:14:03;;;;;;;2.13;1.65;;;;;;;16.76;67.82;99730.09;4872405;29;20063;-78
2024/02/07 12:16:29;;;;;;;3.30;1.60;;;;;;;16.71;68.97;99704.69;4873675;29;20362;-78
2024/02/07 12:18:55;;;;;;;1.13;0.63;;;;;;;16.55;71.00;99681.44;4875264;29;20124;-78
2024/02/07 12:21:21;;;;;;;1.38;1.27;;;;;;;16.83;67.52;99747.56;4849402;29;20052;-79
2024/02/07 12:23:47;;;;;;;2.35;2.15;;;;;;;16.50;66.24;99723.09;4869918;29;20517;-80
2024/02/07 12:26:12;;;;;;;4.38;1.95;;;;;;;16.85;66.32;99753.63;4868533;29;20091;-78
2024/02/07 12:28:38;;;;;;;3.97;3.65;;;;;;;17.01;66.05;99747.78;4871589;29;20139;-78
2024/02/07 12:31:04;;;;;;;1.30;0.73;;;;;;;17.05;65.13;99721.13;4872379;29;20069;-78
2024/02/07 12:33:30;;;;;;;5.50;2.47;;;;;;;16.76;65.01;99677.09;4872220;29;20497;-78